createdAt,value
2023-05-20T00:00:49.585Z,8.97
2023-05-20T00:03:17.569Z,9.73
2023-05-20T00:05:44.965Z,10.23
2023-05-20T00:08:12.336Z,10.90
2023-05-20T00:10:39.743Z,10.50
2023-05-20T00:13:07.202Z,10.17
2023-05-20T00:15:36.258Z,9.60
2023-05-20T00:18:04.393Z,9.77
2023-05-20T00:20:32.661Z,10.53
2023-05-20T00:22:59.697Z,10.57
2023-05-20T00:25:26.857Z,9.97
2023-05-20T00:27:53.891Z,10.13
2023-05-20T00:30:21.047Z,10.43
2023-05-20T00:32:48.145Z,9.30
2023-05-20T00:35:15.160Z,10.00
2023-05-20T00:37:43.185Z,9.70
2023-05-20T00:40:11.709Z,10.47
2023-05-20T00:42:39.367Z,10.40
2023-05-20T00:45:07.038Z,9.90
2023-05-20T00:47:36.697Z,10.57
2023-05-20T00:50:04.929Z,10.20
2023-05-20T00:52:33.119Z,10.93
2023-05-20T00:55:01.037Z,11.03
2023-05-20T00:57:28.147Z,10.93
2023-05-20T00:59:55.604Z,12.07
2023-05-20T01:02:24.192Z,12.53
2023-05-20T01:04:51.250Z,12.23
2023-05-20T01:07:19.307Z,12.77
2023-05-20T01:09:46.382Z,11.80
2023-05-20T01:12:37.282Z,11.23
2023-05-20T01:15:09.570Z,10.97
2023-05-20T01:17:45.072Z,11.27
2023-05-20T01:20:14.572Z,11.17
2023-05-20T01:22:55.986Z,11.27
2023-05-20T01:25:24.890Z,12.17
2023-05-20T01:27:52.931Z,11.23
2023-05-20T01:30:21.327Z,11.47
2023-05-20T01:33:01.841Z,10.53
2023-05-20T01:35:29.897Z,10.80
2023-05-20T01:37:58.939Z,10.73
2023-05-20T01:40:27.847Z,10.93
2023-05-20T01:42:56.110Z,11.97
2023-05-20T01:45:25.391Z,10.83
2023-05-20T01:47:52.963Z,11.63
2023-05-20T01:50:20.206Z,11.30
2023-05-20T01:52:47.161Z,10.57
2023-05-20T01:55:14.208Z,11.20
2023-05-20T01:57:41.249Z,10.07
2023-05-20T02:00:09.733Z,11.70
2023-05-20T02:02:36.816Z,11.30
2023-05-20T02:05:04.181Z,10.97
2023-05-20T02:07:31.114Z,10.17
2023-05-20T02:09:58.169Z,9.90
2023-05-20T02:12:25.209Z,10.23
2023-05-20T02:14:52.268Z,9.40
2023-05-20T02:17:19.833Z,9.67
2023-05-20T02:19:47.412Z,9.73
2023-05-20T02:22:14.895Z,8.90
2023-05-20T02:24:43.443Z,9.43
2023-05-20T02:27:10.861Z,10.60
2023-05-20T02:29:37.842Z,9.67
2023-05-20T02:32:05.268Z,9.80
2023-05-20T02:34:33.074Z,8.83
2023-05-20T02:37:00.187Z,9.50
2023-05-20T02:39:28.526Z,9.00
2023-05-20T02:41:56.408Z,9.30
2023-05-20T02:44:23.569Z,8.77
2023-05-20T02:46:50.590Z,9.80
2023-05-20T02:49:17.587Z,9.23
2023-05-20T02:51:44.653Z,8.40
2023-05-20T02:54:12.078Z,8.87
2023-05-20T02:56:39.343Z,8.90
2023-05-20T02:59:07.221Z,9.27
2023-05-20T03:01:35.547Z,9.70
2023-05-20T03:04:05.708Z,8.23
2023-05-20T03:06:32.869Z,8.33
2023-05-20T03:08:59.841Z,8.33
2023-05-20T03:11:26.905Z,8.70
2023-05-20T03:13:54.045Z,8.13
2023-05-20T03:16:22.366Z,9.13
2023-05-20T03:18:49.770Z,9.20
2023-05-20T03:21:16.855Z,8.53
2023-05-20T03:23:43.752Z,8.70
2023-05-20T03:26:10.801Z,7.80
2023-05-20T03:28:37.764Z,8.10
2023-05-20T03:31:04.829Z,8.07
2023-05-20T03:33:33.724Z,8.73
2023-05-20T03:36:00.834Z,9.70
2023-05-20T03:38:27.987Z,8.90
2023-05-20T03:40:54.970Z,8.30
2023-05-20T03:43:21.861Z,8.83
2023-05-20T03:45:48.836Z,8.13
2023-05-20T03:48:16.071Z,8.70
2023-05-20T03:50:42.988Z,8.80
2023-05-20T03:53:10.006Z,8.37
2023-05-20T03:55:37.043Z,7.50
2023-05-20T03:58:04.156Z,8.73
2023-05-20T04:00:31.875Z,8.63
2023-05-20T04:02:59.301Z,8.23
2023-05-20T04:05:26.963Z,8.13
2023-05-20T04:07:53.903Z,8.37
2023-05-20T04:10:21.545Z,8.63
2023-05-20T04:12:48.775Z,7.70
2023-05-20T04:15:16.075Z,8.87
2023-05-20T04:17:43.726Z,8.47
2023-05-20T04:20:11.514Z,8.17
2023-05-20T04:22:39.775Z,8.03
2023-05-20T04:25:07.791Z,8.17
2023-05-20T04:27:34.862Z,7.63
2023-05-20T04:30:02.666Z,8.53
2023-05-20T04:32:30.337Z,8.40
2023-05-20T04:34:57.406Z,8.00
2023-05-20T04:37:25.274Z,8.43
2023-05-20T04:39:52.595Z,8.10
2023-05-20T04:42:21.532Z,7.53
2023-05-20T04:44:49.056Z,8.37
2023-05-20T04:47:16.613Z,8.40
2023-05-20T04:49:43.766Z,7.93
2023-05-20T04:52:10.812Z,7.97
2023-05-20T04:54:37.794Z,8.60
2023-05-20T04:57:05.073Z,7.23
2023-05-20T04:59:32.040Z,8.27
2023-05-20T05:01:59.094Z,8.33
2023-05-20T05:04:26.175Z,7.83
2023-05-20T05:06:53.154Z,9.20
2023-05-20T05:09:20.075Z,8.10
2023-05-20T05:11:47.041Z,8.60
2023-05-20T05:14:14.018Z,8.63
2023-05-20T05:16:40.961Z,7.87
2023-05-20T05:19:08.825Z,7.67
2023-05-20T05:21:36.232Z,8.70
2023-05-20T05:24:03.161Z,8.17
2023-05-20T05:26:30.134Z,8.10
2023-05-20T05:28:57.260Z,8.50
2023-05-20T05:31:24.299Z,8.83
2023-05-20T05:33:51.256Z,8.10
2023-05-20T05:36:18.216Z,8.47
2023-05-20T05:38:45.272Z,8.13
2023-05-20T05:41:12.186Z,7.63
2023-05-20T05:43:39.249Z,7.77
2023-05-20T05:46:06.661Z,7.87
2023-05-20T05:48:33.687Z,7.77
2023-05-20T05:51:00.747Z,7.03
2023-05-20T05:53:27.725Z,7.80
2023-05-20T05:55:54.752Z,7.63
2023-05-20T05:58:21.706Z,7.50
2023-05-20T06:00:52.982Z,7.27
2023-05-20T06:03:20.137Z,6.93
2023-05-20T06:05:47.593Z,7.17
2023-05-20T06:08:14.703Z,6.67
2023-05-20T06:10:41.825Z,6.97
2023-05-20T06:13:08.778Z,6.80
2023-05-20T06:15:36.640Z,6.97
2023-05-20T06:18:03.894Z,6.77
2023-05-20T06:20:30.852Z,6.90
2023-05-20T06:22:57.808Z,7.03
2023-05-20T06:25:25.557Z,6.43
2023-05-20T06:27:52.528Z,7.27
2023-05-20T06:30:19.493Z,6.53
2023-05-20T06:32:46.776Z,6.35
2023-05-20T06:35:13.753Z,6.40
2023-05-20T06:37:40.859Z,6.28
2023-05-20T06:40:08.868Z,7.40
2023-05-20T06:42:35.826Z,6.22
2023-05-20T06:45:02.890Z,6.65
2023-05-20T06:47:29.938Z,6.60
2023-05-20T06:49:56.870Z,7.47
2023-05-20T06:52:23.782Z,6.93
2023-05-20T06:54:50.734Z,6.38
2023-05-20T06:57:17.719Z,6.47
2023-05-20T06:59:44.812Z,7.57
2023-05-20T07:02:11.935Z,6.05
2023-05-20T07:04:39.026Z,6.28
2023-05-20T07:07:06.115Z,6.20
2023-05-20T07:09:33.124Z,6.07
2023-05-20T07:12:01.979Z,6.97
2023-05-20T07:14:29.011Z,5.93
2023-05-20T07:16:56.072Z,6.53
2023-05-20T07:19:23.051Z,6.47
2023-05-20T07:21:50.104Z,6.43
2023-05-20T07:24:17.433Z,5.78
2023-05-20T07:26:44.606Z,6.05
2023-05-20T07:29:11.601Z,5.93
2023-05-20T07:31:38.689Z,5.90
2023-05-20T07:34:06.058Z,5.93
2023-05-20T07:36:33.009Z,5.68
2023-05-20T07:39:03.588Z,5.47
2023-05-20T07:41:32.142Z,5.72
2023-05-20T07:43:59.105Z,5.40
2023-05-20T07:46:26.215Z,5.75
2023-05-20T07:48:53.602Z,6.15
2023-05-20T07:51:20.562Z,5.97
2023-05-20T07:53:47.618Z,5.60
2023-05-20T07:56:14.573Z,5.40
2023-05-20T07:58:41.820Z,5.80
2023-05-20T08:01:09.769Z,6.20
2023-05-20T08:03:37.069Z,6.03
2023-05-20T08:06:04.319Z,6.05
2023-05-20T08:08:31.267Z,6.13
2023-05-20T08:10:58.222Z,5.18
2023-05-20T08:13:25.614Z,5.10
2023-05-20T08:15:54.889Z,5.70
2023-05-20T08:18:22.844Z,6.05
2023-05-20T08:20:50.091Z,6.00
2023-05-20T08:23:17.147Z,5.78
2023-05-20T08:25:46.810Z,5.78
2023-05-20T08:28:16.301Z,6.03
2023-05-20T08:30:43.383Z,5.88
2023-05-20T08:33:10.925Z,5.65
2023-05-20T08:35:39.771Z,5.07
2023-05-20T08:38:07.149Z,5.55
2023-05-20T08:40:39.954Z,5.80
2023-05-20T08:43:07.233Z,5.35
2023-05-20T08:45:38.198Z,5.28
2023-05-20T08:48:05.872Z,4.93
2023-05-20T08:50:33.645Z,4.78
2023-05-20T08:53:01.256Z,4.85
2023-05-20T08:55:46.902Z,4.93
2023-05-20T08:58:15.766Z,5.45
2023-05-20T09:00:42.714Z,4.93
2023-05-20T09:03:10.134Z,4.63
2023-05-20T09:05:37.444Z,4.70
2023-05-20T09:08:10.074Z,4.45
2023-05-20T09:10:39.008Z,4.82
2023-05-20T09:13:07.722Z,4.70
2023-05-20T09:15:36.674Z,4.13
2023-05-20T09:18:07.268Z,4.57
2023-05-20T09:20:37.262Z,4.20
2023-05-20T09:23:09.893Z,4.05
2023-05-20T09:25:38.001Z,4.32
2023-05-20T09:28:07.679Z,3.97
2023-05-20T09:30:35.121Z,3.88
2023-05-20T09:33:05.520Z,3.35
2023-05-20T09:35:39.177Z,3.08
2023-05-20T09:38:10.056Z,2.90
2023-05-20T09:40:40.554Z,2.60
2023-05-20T09:43:08.400Z,3.35
2023-05-20T09:45:35.870Z,2.80
2023-05-20T09:48:05.683Z,3.00
2023-05-20T09:50:33.292Z,2.67
2023-05-20T09:53:04.763Z,3.13
2023-05-20T09:55:32.333Z,2.80
2023-05-20T09:58:03.327Z,2.88
2023-05-20T10:00:31.544Z,2.85
2023-05-20T10:02:59.529Z,3.17
2023-05-20T10:05:37.391Z,3.20
2023-05-20T10:08:57.276Z,2.88
2023-05-20T10:12:02.423Z,2.70
2023-05-20T10:14:42.167Z,2.90
2023-05-20T10:17:27.470Z,2.95
2023-05-20T10:20:01.673Z,3.00
2023-05-20T10:22:31.641Z,2.92
2023-05-20T10:25:01.378Z,2.92
2023-05-20T10:27:28.400Z,2.75
2023-05-20T10:29:58.429Z,2.90
2023-05-20T10:32:31.856Z,3.03
2023-05-20T10:35:05.444Z,3.15
2023-05-20T10:37:42.007Z,3.03
2023-05-20T10:40:14.802Z,3.13
2023-05-20T10:42:42.827Z,2.80
2023-05-20T10:45:10.883Z,2.70
2023-05-20T10:47:57.065Z,2.70
2023-05-20T10:50:40.984Z,2.83
2023-05-20T10:53:21.682Z,2.88
2023-05-20T10:55:56.716Z,3.00
2023-05-20T10:58:25.066Z,2.80
2023-05-20T11:00:55.455Z,2.80
2023-05-20T11:03:23.478Z,2.85
2023-05-20T11:05:51.233Z,2.75
2023-05-20T11:08:28.516Z,2.95
2023-05-20T11:10:57.998Z,3.00
2023-05-20T11:13:27.672Z,2.92
2023-05-20T11:15:55.535Z,2.78
2023-05-20T11:18:22.586Z,2.92
2023-05-20T11:20:49.653Z,2.38
2023-05-20T11:23:16.780Z,2.75
2023-05-20T11:25:43.756Z,3.13
2023-05-20T11:28:14.589Z,3.13
2023-05-20T11:30:43.685Z,3.38
2023-05-20T11:33:14.286Z,3.13
2023-05-20T11:35:49.610Z,2.53
2023-05-20T11:38:17.279Z,2.80
2023-05-20T11:40:52.110Z,3.05
2023-05-20T11:43:20.360Z,3.15
2023-05-20T11:45:59.999Z,2.88
2023-05-20T11:48:27.154Z,2.95
2023-05-20T11:50:56.233Z,3.95
2023-05-20T11:53:24.463Z,3.65
2023-05-20T11:55:55.669Z,3.20
2023-05-20T11:58:32.501Z,2.55
2023-05-20T12:01:13.303Z,2.65
2023-05-20T12:03:46.951Z,2.78
2023-05-20T12:06:14.173Z,2.80
2023-05-20T12:08:41.136Z,2.90
2023-05-20T12:11:08.087Z,2.70
2023-05-20T12:13:35.585Z,2.90
2023-05-20T12:16:04.237Z,2.92
2023-05-20T12:18:31.868Z,2.90
2023-05-20T12:21:00.108Z,2.70
2023-05-20T12:23:27.447Z,2.88
2023-05-20T12:25:54.373Z,2.97
2023-05-20T12:28:21.709Z,2.78
2023-05-20T12:30:48.638Z,2.75
2023-05-20T12:33:15.691Z,4.20
2023-05-20T12:35:43.836Z,2.80
2023-05-20T12:38:11.213Z,2.90
2023-05-20T12:40:38.564Z,3.38
2023-05-20T12:43:06.937Z,5.03
2023-05-20T12:45:34.152Z,3.08
2023-05-20T12:48:01.353Z,2.88
2023-05-20T12:50:28.746Z,2.70
2023-05-20T12:52:55.790Z,2.78
2023-05-20T12:55:23.076Z,2.80
2023-05-20T12:57:50.445Z,2.50
2023-05-20T13:00:17.966Z,2.90
2023-05-20T13:02:45.053Z,2.83
2023-05-20T13:05:12.316Z,3.20
2023-05-20T13:07:39.774Z,3.15
2023-05-20T13:10:08.374Z,2.90
2023-05-20T13:12:36.727Z,2.88
2023-05-20T13:15:05.088Z,2.80
2023-05-20T13:17:32.275Z,3.30
2023-05-20T13:19:59.343Z,2.72
2023-05-20T13:22:26.302Z,2.90
2023-05-20T13:24:53.256Z,2.78
2023-05-20T13:27:20.218Z,2.45
2023-05-20T13:29:47.460Z,2.60
2023-05-20T13:32:14.417Z,2.53
2023-05-20T13:34:41.570Z,2.83
2023-05-20T13:37:08.605Z,2.75
2023-05-20T13:39:36.374Z,2.70
2023-05-20T13:42:04.279Z,2.85
2023-05-20T13:44:32.726Z,3.10
2023-05-20T13:47:00.169Z,2.72
2023-05-20T13:49:27.640Z,2.83
2023-05-20T13:51:54.594Z,2.97
2023-05-20T13:54:22.125Z,2.90
2023-05-20T13:56:49.320Z,2.83
2023-05-20T13:59:16.585Z,3.35
2023-05-20T14:01:45.438Z,3.33
2023-05-20T14:04:12.972Z,3.50
2023-05-20T14:06:40.599Z,2.88
2023-05-20T14:09:09.282Z,3.30
2023-05-20T14:11:37.050Z,2.97
2023-05-20T14:14:04.224Z,2.63
2023-05-20T14:16:32.535Z,3.25
2023-05-20T14:18:59.691Z,2.65
2023-05-20T14:21:26.717Z,2.60
2023-05-20T14:23:53.859Z,3.28
2023-05-20T14:26:21.724Z,3.63
2023-05-20T14:28:49.097Z,3.20
2023-05-20T14:31:16.492Z,3.33
2023-05-20T14:33:43.597Z,3.03
2023-05-20T14:36:11.395Z,2.65
2023-05-20T14:38:38.857Z,2.83
2023-05-20T14:41:05.929Z,3.30
2023-05-20T14:43:32.913Z,2.97
2023-05-20T14:46:00.111Z,3.85
2023-05-20T14:48:27.151Z,3.65
2023-05-20T14:50:54.145Z,3.40
2023-05-20T14:53:21.248Z,3.85
2023-05-20T14:55:48.444Z,3.50
2023-05-20T14:58:15.491Z,3.10
2023-05-20T15:00:42.500Z,3.05
2023-05-20T15:03:09.830Z,3.38
2023-05-20T15:05:37.016Z,3.92
2023-05-20T15:08:04.279Z,3.13
2023-05-20T15:10:31.575Z,3.50
2023-05-20T15:12:58.552Z,3.10
2023-05-20T15:15:25.583Z,3.13
2023-05-20T15:17:52.637Z,2.95
2023-05-20T15:20:19.732Z,2.70
2023-05-20T15:22:48.125Z,2.45
2023-05-20T15:25:15.337Z,3.22
2023-05-20T15:27:42.594Z,2.90
2023-05-20T15:30:10.595Z,2.63
2023-05-20T15:32:37.937Z,3.25
2023-05-20T15:35:06.078Z,2.83
2023-05-20T15:37:33.057Z,2.75
2023-05-20T15:39:59.979Z,2.70
2023-05-20T15:42:27.007Z,3.00
2023-05-20T15:44:54.014Z,3.00
2023-05-20T15:47:21.434Z,2.85
2023-05-20T15:49:48.523Z,3.10
2023-05-20T15:52:15.592Z,3.30
2023-05-20T15:54:42.657Z,2.95
2023-05-20T15:57:10.149Z,3.03
2023-05-20T15:59:37.100Z,3.05
2023-05-20T16:02:04.263Z,3.30
2023-05-20T16:04:32.541Z,3.53
2023-05-20T16:06:59.668Z,3.30
2023-05-20T16:09:26.673Z,3.40
2023-05-20T16:11:53.635Z,3.17
2023-05-20T16:14:20.549Z,3.47
2023-05-20T16:16:47.649Z,4.10
2023-05-20T16:19:14.801Z,3.78
2023-05-20T16:21:41.750Z,3.35
2023-05-20T16:24:08.736Z,3.35
2023-05-20T16:26:35.716Z,2.85
2023-05-20T16:29:02.703Z,3.35
2023-05-20T16:31:29.781Z,3.05
2023-05-20T16:33:57.422Z,3.10
2023-05-20T16:36:24.385Z,2.75
2023-05-20T16:38:51.413Z,3.08
2023-05-20T16:41:18.516Z,2.70
2023-05-20T16:43:45.491Z,2.55
2023-05-20T16:46:14.874Z,2.80
2023-05-20T16:48:42.999Z,2.70
2023-05-20T16:51:09.920Z,2.95
2023-05-20T16:53:37.371Z,2.75
2023-05-20T16:56:06.752Z,2.75
2023-05-20T16:58:33.725Z,2.83
2023-05-20T17:01:01.981Z,2.33
2023-05-20T17:03:28.958Z,2.75
2023-05-20T17:05:55.947Z,2.80
2023-05-20T17:08:22.999Z,2.90
2023-05-20T17:10:52.426Z,2.92
2023-05-20T17:13:21.041Z,2.63
2023-05-20T17:15:48.277Z,2.75
2023-05-20T17:18:15.342Z,2.70
2023-05-20T17:20:42.362Z,2.95
2023-05-20T17:23:09.413Z,2.65
2023-05-20T17:25:36.458Z,2.88
2023-05-20T17:28:03.569Z,2.60
2023-05-20T17:30:30.554Z,2.65
2023-05-20T17:32:57.901Z,2.58
2023-05-20T17:35:28.221Z,2.55
2023-05-20T17:37:55.359Z,2.75
2023-05-20T17:40:22.420Z,2.40
2023-05-20T17:42:49.399Z,2.90
2023-05-20T17:45:16.685Z,2.60
2023-05-20T17:47:43.683Z,2.50
2023-05-20T17:50:11.182Z,2.90
2023-05-20T17:52:38.312Z,3.00
2023-05-20T17:55:06.693Z,2.40
2023-05-20T17:57:34.017Z,2.90
2023-05-20T18:00:00.956Z,2.90
2023-05-20T18:02:28.089Z,3.15
2023-05-20T18:04:55.195Z,2.70
2023-05-20T18:07:22.388Z,2.70
2023-05-20T18:09:49.366Z,2.40
2023-05-20T18:12:16.306Z,2.60
2023-05-20T18:14:43.280Z,2.55
2023-05-20T18:17:10.532Z,2.38
2023-05-20T18:19:37.515Z,2.45
2023-05-20T18:22:07.199Z,2.20
2023-05-20T18:24:34.577Z,2.78
2023-05-20T18:27:01.573Z,2.65
2023-05-20T18:29:28.550Z,2.83
2023-05-20T18:31:55.755Z,2.78
2023-05-20T18:34:22.804Z,2.80
2023-05-20T18:36:50.178Z,2.58
2023-05-20T18:39:20.496Z,2.67
2023-05-20T18:41:48.597Z,2.58
2023-05-20T18:44:17.461Z,2.45
2023-05-20T18:46:44.758Z,2.78
2023-05-20T18:49:11.776Z,2.50
2023-05-20T18:51:40.183Z,2.40
2023-05-20T18:54:07.283Z,2.50
2023-05-20T18:56:35.059Z,2.58
2023-05-20T18:59:02.117Z,2.50
2023-05-20T19:01:29.152Z,2.60
2023-05-20T19:03:56.218Z,2.60
2023-05-20T19:06:23.516Z,2.10
2023-05-20T19:08:50.817Z,2.70
2023-05-20T19:11:17.909Z,2.58
2023-05-20T19:13:44.886Z,2.50
2023-05-20T19:16:11.926Z,2.50
2023-05-20T19:18:39.085Z,2.50
2023-05-20T19:21:06.291Z,2.60
2023-05-20T19:23:33.198Z,2.67
2023-05-20T19:26:00.207Z,2.75
2023-05-20T19:28:27.162Z,2.80
2023-05-20T19:30:54.149Z,2.72
2023-05-20T19:33:21.728Z,3.00
2023-05-20T19:35:51.874Z,2.80
2023-05-20T19:38:18.853Z,2.80
2023-05-20T19:40:47.014Z,2.75
2023-05-20T19:43:14.108Z,2.25
2023-05-20T19:45:41.238Z,2.83
2023-05-20T19:48:08.766Z,2.80
2023-05-20T19:50:36.447Z,3.20
2023-05-20T19:53:06.374Z,2.50
2023-05-20T19:55:38.604Z,3.15
2023-05-20T19:58:06.049Z,2.97
2023-05-20T20:00:33.004Z,3.20
2023-05-20T20:03:00.086Z,2.67
2023-05-20T20:05:27.198Z,2.92
2023-05-20T20:07:54.322Z,2.80
2023-05-20T20:10:24.580Z,2.60
2023-05-20T20:12:51.570Z,2.80
2023-05-20T20:15:23.698Z,2.67
2023-05-20T20:17:52.471Z,2.60
2023-05-20T20:20:20.004Z,2.75
2023-05-20T20:22:47.038Z,2.47
2023-05-20T20:25:14.032Z,2.42
2023-05-20T20:27:43.934Z,3.05
2023-05-20T20:30:13.387Z,2.90
2023-05-20T20:32:41.794Z,2.92
2023-05-20T20:35:09.559Z,3.30
2023-05-20T20:37:40.192Z,2.70
2023-05-20T20:40:13.256Z,2.97
2023-05-20T20:42:42.376Z,2.92
2023-05-20T20:45:12.304Z,3.05
2023-05-20T20:47:41.090Z,2.85
2023-05-20T20:50:12.694Z,3.00
2023-05-20T20:52:40.230Z,3.33
2023-05-20T20:55:07.989Z,3.45
2023-05-20T20:57:35.321Z,3.88
2023-05-20T21:00:08.880Z,3.83
2023-05-20T21:02:36.481Z,3.78
2023-05-20T21:05:03.467Z,4.13
2023-05-20T21:07:30.562Z,3.83
2023-05-20T21:09:57.677Z,4.00
2023-05-20T21:12:24.614Z,3.80
2023-05-20T21:14:51.645Z,4.60
2023-05-20T21:17:18.609Z,4.50
2023-05-20T21:19:45.535Z,3.80
2023-05-20T21:22:12.507Z,3.65
2023-05-20T21:24:39.504Z,3.70
2023-05-20T21:27:06.437Z,4.38
2023-05-20T21:29:35.272Z,4.32
2023-05-20T21:32:02.271Z,3.78
2023-05-20T21:34:29.203Z,3.72
2023-05-20T21:36:56.446Z,3.40
2023-05-20T21:39:23.477Z,4.18
2023-05-20T21:41:50.388Z,4.05
2023-05-20T21:44:17.366Z,4.13
2023-05-20T21:46:44.358Z,4.50
2023-05-20T21:49:11.356Z,4.85
2023-05-20T21:51:38.300Z,4.07
2023-05-20T21:54:05.295Z,4.93
2023-05-20T21:56:32.225Z,3.97
2023-05-20T21:58:59.173Z,3.80
2023-05-20T22:01:26.131Z,4.38
2023-05-20T22:03:53.345Z,3.80
2023-05-20T22:06:21.562Z,4.03
2023-05-20T22:08:49.045Z,4.18
2023-05-20T22:11:18.416Z,4.25
2023-05-20T22:13:53.634Z,4.60
2023-05-20T22:16:21.505Z,4.53
2023-05-20T22:18:53.868Z,4.22
2023-05-20T22:21:21.525Z,4.50
2023-05-20T22:23:51.379Z,4.40
2023-05-20T22:26:19.725Z,4.20
2023-05-20T22:28:46.878Z,4.50
2023-05-20T22:31:14.045Z,4.25
2023-05-20T22:33:44.075Z,5.07
2023-05-20T22:36:11.038Z,4.55
2023-05-20T22:38:38.053Z,4.93
2023-05-20T22:41:05.696Z,4.45
2023-05-20T22:43:36.718Z,4.22
2023-05-20T22:46:03.991Z,5.20
2023-05-20T22:48:34.317Z,4.38
2023-05-20T22:51:03.795Z,4.07
2023-05-20T22:53:30.819Z,4.40
2023-05-20T22:56:05.878Z,4.10
2023-05-20T22:58:39.465Z,4.70
2023-05-20T23:01:10.533Z,4.97
2023-05-20T23:03:38.229Z,5.03
2023-05-20T23:06:07.260Z,4.55
2023-05-20T23:08:44.499Z,4.57
2023-05-20T23:11:11.714Z,5.35
2023-05-20T23:13:38.639Z,5.00
2023-05-20T23:16:06.529Z,5.07
2023-05-20T23:18:40.011Z,4.80
2023-05-20T23:21:07.372Z,4.90
2023-05-20T23:23:37.402Z,5.13
2023-05-20T23:26:08.339Z,4.60
2023-05-20T23:28:42.108Z,4.45
2023-05-20T23:31:09.285Z,4.00
2023-05-20T23:33:36.366Z,4.35
2023-05-20T23:36:07.338Z,5.45
2023-05-20T23:38:37.969Z,5.53
2023-05-20T23:41:05.084Z,4.43
2023-05-20T23:43:31.992Z,4.60
2023-05-20T23:45:58.933Z,4.30
2023-05-20T23:48:29.649Z,4.38
2023-05-20T23:51:10.183Z,5.10
2023-05-20T23:53:40.873Z,5.10
2023-05-20T23:56:10.779Z,5.57
2023-05-20T23:58:53.371Z,4.90
